18:14
Airports
History
Links
Donate
Help keep this website running!
PayPal
Bitcoin
This page is community maintained. The information is intended for PC simulator navigation or reference.
Always use approved charts for navigation.
SIVJ
Cirrus Sociedade Aerodesportiva
Cirrus Sociedade Aerodesportiva (SIVJ)
Jaboticatubas, Minas Gerais, Brazil (35830)
4
Lat/Lng:19° 27' 10" S / 43° 53' 59" W
-19.452778 / -43.899722
Elevation:2402'ft / 732mMSL
ID / ICAO:SIVJ
Runways:1
Longest:(13-31) 498.9m / 1,637ft Gravel
Distance To
Airport ID:
Nearby WeatherUpdated 08-18-17 18:00 GMT
Nearby weather at SBCF, Tancredo Neves located 13.3 nautical miles from SIVJ
Altimeter: 30.03
Visibility: 6.2 statute miles
Wind: 9 knots (140°)
Temp: 27°c 81°f
Humidity: 36.8%

METAR: SBCF 181800Z 14009KT 9999 FEW045 SCT100 27/11 Q1017

(Powered by phpweather)
Runway 13 / 31
Dimensions:498.9 x 39.9m 1637' x 131'ft
Surface:Gravel
Runway 13 [A]Runway 31 [B]
Heading:108°TH 288°TH
Lat:
Lng:
19° 27' 7.38"S
43° 54' 7.16"W
19° 27' 12.62"S
43° 53' 50.84"W
User Notes and Comments
Google Map
Nearby Airports
4 Serra do Cipo 10.7 NM
SNLG ENE 69°
(C) Tancredo Neves 13.3 NM
SBCF (WX) SSW 199°
(C) LAGOA SANTA 14.4 NM
SBLS S 179°
4 Fazenda das Perobas 17.2 NM
SWJX WSW 258°
(C) Pampulha 27.7 NM
SBBH (WX) S 186°
(U) CARLOS PRATES 32.1 NM
SBPR S 190°
(U) Fazenda do Brejo 39.8 NM
SWZT WNW 290°
VFR Chart
Flight Planning at SkyVector.com